createdAt,value
2023-04-15T00:01:06.588Z,100.00
2023-04-15T00:03:35.687Z,100.00
2023-04-15T00:06:06.295Z,100.00
2023-04-15T00:08:34.472Z,100.00
2023-04-15T00:11:05.935Z,100.00
2023-04-15T00:13:35.827Z,100.00
2023-04-15T00:16:04.098Z,100.00
2023-04-15T00:18:32.392Z,100.00
2023-04-15T00:21:00.634Z,100.00
2023-04-15T00:23:28.895Z,100.00
2023-04-15T00:25:56.937Z,100.00
2023-04-15T00:28:25.669Z,100.00
2023-04-15T00:30:55.095Z,100.00
2023-04-15T00:33:24.217Z,100.00
2023-04-15T00:35:52.228Z,100.00
2023-04-15T00:38:20.287Z,100.00
2023-04-15T00:40:48.462Z,100.00
2023-04-15T00:43:18.253Z,100.00
2023-04-15T00:45:47.261Z,100.00
2023-04-15T00:48:17.798Z,100.00
2023-04-15T00:50:48.421Z,100.00
2023-04-15T00:53:17.347Z,100.00
2023-04-15T00:55:45.479Z,100.00
2023-04-15T00:58:14.108Z,100.00
2023-04-15T01:00:44.400Z,100.00
2023-04-15T01:03:13.554Z,100.00
2023-04-15T01:05:45.263Z,100.00
2023-04-15T01:08:15.319Z,100.00
2023-04-15T01:10:45.324Z,100.00
2023-04-15T01:13:18.753Z,100.00
2023-04-15T01:15:48.014Z,100.00
2023-04-15T01:18:18.409Z,100.00
2023-04-15T01:20:49.954Z,100.00
2023-04-15T01:23:19.115Z,100.00
2023-04-15T01:25:50.708Z,100.00
2023-04-15T01:28:20.792Z,100.00
2023-04-15T01:30:49.316Z,100.00
2023-04-15T01:33:18.018Z,100.00
2023-04-15T01:35:48.153Z,100.00
2023-04-15T01:38:16.873Z,100.00
2023-04-15T01:40:47.153Z,100.00
2023-04-15T01:43:18.101Z,100.00
2023-04-15T01:45:47.216Z,100.00
2023-04-15T01:48:17.400Z,100.00
2023-04-15T01:50:45.932Z,100.00
2023-04-15T01:53:16.178Z,100.00
2023-04-15T01:55:44.442Z,100.00
2023-04-15T01:58:17.909Z,100.00
2023-04-15T02:00:46.355Z,100.00
2023-04-15T02:03:16.073Z,100.00
2023-04-15T02:05:44.435Z,100.00
2023-04-15T02:08:13.525Z,100.00
2023-04-15T02:10:41.786Z,100.00
2023-04-15T02:13:09.842Z,100.00
2023-04-15T02:15:41.090Z,100.00
2023-04-15T02:18:10.072Z,100.00
2023-04-15T02:20:38.860Z,100.00
2023-04-15T02:23:07.798Z,100.00
2023-04-15T02:25:37.340Z,100.00
2023-04-15T02:28:08.975Z,100.00
2023-04-15T02:30:37.911Z,100.00
2023-04-15T02:33:07.971Z,100.00
2023-04-15T02:35:39.277Z,100.00
2023-04-15T02:38:07.637Z,100.00
2023-04-15T02:40:35.356Z,100.00
2023-04-15T02:43:06.946Z,100.00
2023-04-15T02:45:35.884Z,100.00
2023-04-15T02:48:07.931Z,100.00
2023-04-15T02:50:39.752Z,100.00
2023-04-15T02:53:08.899Z,100.00
2023-04-15T02:55:37.013Z,100.00
2023-04-15T02:58:04.943Z,100.00
2023-04-15T03:00:33.425Z,100.00
2023-04-15T03:03:04.141Z,100.00
2023-04-15T03:05:33.901Z,100.00
2023-04-15T03:08:05.152Z,100.00
2023-04-15T03:10:33.332Z,100.00
2023-04-15T03:13:02.928Z,100.00
2023-04-15T03:15:32.451Z,100.00
2023-04-15T03:18:06.002Z,100.00
2023-04-15T03:20:37.790Z,100.00
2023-04-15T03:23:06.392Z,100.00
2023-04-15T03:25:35.530Z,100.00
2023-04-15T03:28:07.286Z,100.00
2023-04-15T03:30:36.031Z,100.00
2023-04-15T03:33:04.520Z,100.00
2023-04-15T03:35:34.184Z,100.00
2023-04-15T03:38:04.505Z,100.00
2023-04-15T03:40:33.090Z,100.00
2023-04-15T03:43:01.803Z,100.00
2023-04-15T03:45:30.374Z,100.00
2023-04-15T03:48:11.377Z,100.00
2023-04-15T03:50:44.114Z,100.00
2023-04-15T03:53:14.893Z,100.00
2023-04-15T03:55:44.898Z,100.00
2023-04-15T03:58:13.278Z,100.00
2023-04-15T04:00:42.046Z,100.00
2023-04-15T04:03:11.120Z,100.00
2023-04-15T04:05:41.768Z,100.00
2023-04-15T04:08:10.525Z,100.00
2023-04-15T04:10:40.762Z,100.00
2023-04-15T04:13:09.477Z,100.00
2023-04-15T04:15:37.970Z,100.00
2023-04-15T04:18:06.658Z,100.00
2023-04-15T04:20:35.089Z,100.00
2023-04-15T04:23:03.505Z,100.00
2023-04-15T04:25:31.450Z,100.00
2023-04-15T04:28:01.064Z,100.00
2023-04-15T04:30:28.907Z,100.00
2023-04-15T04:32:57.084Z,100.00
2023-04-15T04:35:24.932Z,100.00
2023-04-15T04:37:54.054Z,100.00
2023-04-15T04:40:22.598Z,100.00
2023-04-15T04:42:50.490Z,100.00
2023-04-15T04:45:20.205Z,100.00
2023-04-15T04:47:48.853Z,100.00
2023-04-15T04:50:18.295Z,100.00
2023-04-15T04:52:47.326Z,100.00
2023-04-15T04:55:15.653Z,100.00
2023-04-15T04:57:44.154Z,100.00
2023-04-15T05:00:13.368Z,100.00
2023-04-15T05:02:47.115Z,100.00
2023-04-15T05:05:16.390Z,100.00
2023-04-15T05:07:44.534Z,100.00
2023-04-15T05:10:13.261Z,100.00
2023-04-15T05:12:41.620Z,100.00
2023-04-15T05:15:11.527Z,100.00
2023-04-15T05:17:39.774Z,100.00
2023-04-15T05:20:12.673Z,100.00
2023-04-15T05:22:41.609Z,100.00
2023-04-15T05:25:14.268Z,100.00
2023-04-15T05:27:43.498Z,100.00
2023-04-15T05:30:13.540Z,100.00
2023-04-15T05:32:43.712Z,100.00
2023-04-15T05:35:14.760Z,100.00
2023-04-15T05:37:43.549Z,100.00
2023-04-15T05:40:12.017Z,100.00
2023-04-15T05:42:41.165Z,100.00
2023-04-15T05:45:10.708Z,100.00
2023-04-15T05:47:39.088Z,100.00
2023-04-15T05:50:08.514Z,100.00
2023-04-15T05:52:40.708Z,100.00
2023-04-15T05:55:09.041Z,100.00
2023-04-15T05:57:41.481Z,100.00
2023-04-15T06:00:11.604Z,100.00
2023-04-15T06:02:39.649Z,100.00
2023-04-15T06:05:10.049Z,100.00
2023-04-15T06:07:41.424Z,100.00
2023-04-15T06:10:10.714Z,100.00
2023-04-15T06:12:38.845Z,100.00
2023-04-15T06:15:10.682Z,100.00
2023-04-15T06:17:39.149Z,100.00
2023-04-15T06:20:08.591Z,100.00
2023-04-15T06:22:38.343Z,100.00
2023-04-15T06:25:12.007Z,100.00
2023-04-15T06:27:40.640Z,100.00
2023-04-15T06:30:09.396Z,100.00
2023-04-15T06:32:37.472Z,100.00
2023-04-15T06:35:07.919Z,100.00
2023-04-15T06:37:36.523Z,100.00
2023-04-15T06:40:06.372Z,100.00
2023-04-15T06:42:37.603Z,100.00
2023-04-15T06:45:07.528Z,100.00
2023-04-15T06:47:35.943Z,100.00
2023-04-15T06:50:04.658Z,100.00
2023-04-15T06:52:32.540Z,100.00
2023-04-15T06:55:03.256Z,100.00
2023-04-15T06:57:33.284Z,100.00
2023-04-15T07:00:05.860Z,100.00
2023-04-15T07:02:34.526Z,100.00
2023-04-15T07:05:02.627Z,100.00
2023-04-15T07:07:30.676Z,100.00
2023-04-15T07:09:58.871Z,100.00
2023-04-15T07:12:28.266Z,100.00
2023-04-15T07:14:56.431Z,100.00
2023-04-15T07:17:26.064Z,100.00
2023-04-15T07:19:54.260Z,100.00
2023-04-15T07:22:22.533Z,100.00
2023-04-15T07:24:50.652Z,100.00
2023-04-15T07:27:19.286Z,93.94
2023-04-15T07:29:47.507Z,82.83
2023-04-15T07:32:15.384Z,76.92
2023-04-15T07:34:45.386Z,76.48
2023-04-15T07:37:14.165Z,80.71
2023-04-15T07:39:42.728Z,75.97
2023-04-15T07:42:13.964Z,68.41
2023-04-15T07:44:42.674Z,72.43
2023-04-15T07:47:10.949Z,66.47
2023-04-15T07:49:39.316Z,66.53
2023-04-15T07:52:09.139Z,71.78
2023-04-15T07:54:37.598Z,71.73
2023-04-15T07:57:05.884Z,77.23
2023-04-15T07:59:34.670Z,80.04
2023-04-15T08:02:02.932Z,82.73
2023-04-15T08:04:32.573Z,72.74
2023-04-15T08:07:00.987Z,69.74
2023-04-15T08:09:34.620Z,75.14
2023-04-15T08:12:03.492Z,85.75
2023-04-15T08:14:32.211Z,81.67
2023-04-15T08:17:05.563Z,78.33
2023-04-15T08:19:34.583Z,81.53
2023-04-15T08:22:02.720Z,77.57
2023-04-15T08:24:35.902Z,80.91
2023-04-15T08:27:08.152Z,85.31
2023-04-15T08:29:36.484Z,92.18
2023-04-15T08:32:04.917Z,95.69
2023-04-15T08:34:35.954Z,92.69
2023-04-15T08:37:05.301Z,95.75
2023-04-15T08:39:37.358Z,86.18
2023-04-15T08:42:07.885Z,82.11
2023-04-15T08:44:37.594Z,78.65
2023-04-15T08:47:09.296Z,81.60
2023-04-15T08:49:42.858Z,79.39
2023-04-15T08:52:11.190Z,75.92
2023-04-15T08:54:42.518Z,76.24
2023-04-15T08:57:12.211Z,72.48
2023-04-15T08:59:41.417Z,73.11
2023-04-15T09:02:10.225Z,70.54
2023-04-15T09:04:39.364Z,71.19
2023-04-15T09:07:07.911Z,69.84
2023-04-15T09:09:37.734Z,72.69
2023-04-15T09:12:06.997Z,65.66
2023-04-15T09:14:35.815Z,63.23
2023-04-15T09:17:06.133Z,60.95
2023-04-15T09:19:35.730Z,65.06
2023-04-15T09:22:03.901Z,61.87
2023-04-15T09:24:39.418Z,56.51
2023-04-15T09:27:09.646Z,50.66
2023-04-15T09:29:40.454Z,48.42
2023-04-15T09:32:13.053Z,51.76
2023-04-15T09:34:42.472Z,47.29
2023-04-15T09:37:11.180Z,48.04
2023-04-15T09:39:50.224Z,46.04
2023-04-15T09:42:24.683Z,51.38
2023-04-15T09:44:53.557Z,54.65
2023-04-15T09:47:32.924Z,54.58
2023-04-15T09:50:02.573Z,58.18
2023-04-15T09:52:30.697Z,57.89
2023-04-15T09:54:59.623Z,55.10
2023-04-15T09:57:38.000Z,51.41
2023-04-15T10:00:08.573Z,54.26
2023-04-15T10:02:37.585Z,54.80
2023-04-15T10:05:07.070Z,52.18
2023-04-15T10:07:35.759Z,53.44
2023-04-15T10:10:05.434Z,50.31
2023-04-15T10:12:35.443Z,47.88
2023-04-15T10:15:06.566Z,47.96
2023-04-15T10:17:35.736Z,50.14
2023-04-15T10:20:06.494Z,51.38
2023-04-15T10:22:34.537Z,51.29
2023-04-15T10:25:04.866Z,52.92
2023-04-15T10:27:34.724Z,50.36
2023-04-15T10:30:04.934Z,51.48
2023-04-15T10:32:33.405Z,55.89
2023-04-15T10:35:04.676Z,56.07
2023-04-15T10:37:37.517Z,57.72
2023-04-15T10:40:24.712Z,55.66
2023-04-15T10:42:54.891Z,53.17
2023-04-15T10:45:24.138Z,55.26
2023-04-15T10:48:01.546Z,56.27
2023-04-15T10:50:35.090Z,56.50
2023-04-15T10:53:04.367Z,56.88
2023-04-15T10:55:34.775Z,52.80
2023-04-15T10:58:04.574Z,52.29
2023-04-15T11:00:35.958Z,50.81
2023-04-15T11:03:07.532Z,46.53
2023-04-15T11:05:52.211Z,47.43
2023-04-15T11:08:20.769Z,47.18
2023-04-15T11:11:06.067Z,48.49
2023-04-15T11:13:36.268Z,47.71
2023-04-15T11:16:04.895Z,48.72
2023-04-15T11:18:34.122Z,46.73
2023-04-15T11:21:25.846Z,47.38
2023-04-15T11:23:58.260Z,48.90
2023-04-15T11:26:27.876Z,48.63
2023-04-15T11:28:57.244Z,46.34
2023-04-15T11:31:28.824Z,46.09
2023-04-15T11:34:00.449Z,40.79
2023-04-15T11:36:29.220Z,41.24
2023-04-15T11:38:57.104Z,43.13
2023-04-15T11:41:25.004Z,43.80
2023-04-15T11:43:53.691Z,42.40
2023-04-15T11:46:23.144Z,39.81
2023-04-15T11:48:51.165Z,42.83
2023-04-15T11:51:21.885Z,41.59
2023-04-15T11:53:50.619Z,41.54
2023-04-15T11:56:23.268Z,43.97
2023-04-15T11:58:53.733Z,45.98
2023-04-15T12:01:32.424Z,50.43
2023-04-15T12:04:01.562Z,50.50
2023-04-15T12:06:35.402Z,48.68
2023-04-15T12:09:05.697Z,51.11
2023-04-15T12:11:35.572Z,53.82
2023-04-15T12:14:11.157Z,57.18
2023-04-15T12:16:48.163Z,59.17
2023-04-15T12:19:20.222Z,58.68
2023-04-15T12:21:49.153Z,58.97
2023-04-15T12:24:22.387Z,67.25
2023-04-15T12:26:51.492Z,79.76
2023-04-15T12:29:19.852Z,90.07
2023-04-15T12:31:54.555Z,100.00
2023-04-15T12:34:31.580Z,100.00
2023-04-15T12:37:01.498Z,100.00
2023-04-15T12:39:32.736Z,100.00
2023-04-15T12:42:01.876Z,100.00
2023-04-15T12:44:31.978Z,100.00
2023-04-15T12:47:01.711Z,100.00
2023-04-15T12:49:31.112Z,100.00
2023-04-15T12:52:00.850Z,100.00
2023-04-15T12:54:29.248Z,100.00
2023-04-15T12:56:57.901Z,100.00
2023-04-15T12:59:26.275Z,100.00
2023-04-15T13:01:55.971Z,100.00
2023-04-15T13:04:25.721Z,100.00
2023-04-15T13:06:54.139Z,100.00
2023-04-15T13:09:23.005Z,100.00
2023-04-15T13:11:51.165Z,100.00
2023-04-15T13:14:19.354Z,100.00
2023-04-15T13:16:47.445Z,100.00
2023-04-15T13:19:15.581Z,100.00
2023-04-15T13:21:45.019Z,100.00
2023-04-15T13:24:16.468Z,100.00
2023-04-15T13:26:45.698Z,100.00
2023-04-15T13:29:14.503Z,100.00
2023-04-15T13:31:42.410Z,100.00
2023-04-15T13:34:10.639Z,100.00
2023-04-15T13:36:38.773Z,100.00
2023-04-15T13:39:11.163Z,100.00
2023-04-15T13:41:39.535Z,100.00
2023-04-15T13:44:09.365Z,100.00
2023-04-15T13:46:38.106Z,100.00
2023-04-15T13:49:06.292Z,100.00
2023-04-15T13:51:36.142Z,100.00
2023-04-15T13:54:04.462Z,100.00
2023-04-15T13:56:34.307Z,100.00
2023-04-15T13:59:03.205Z,100.00
2023-04-15T14:01:32.856Z,100.00
2023-04-15T14:04:02.687Z,100.00
2023-04-15T14:06:32.361Z,100.00
2023-04-15T14:09:00.325Z,100.00
2023-04-15T14:11:30.105Z,100.00
2023-04-15T14:14:05.011Z,100.00
2023-04-15T14:16:34.123Z,100.00
2023-04-15T14:19:03.965Z,100.00
2023-04-15T14:21:33.106Z,100.00
2023-04-15T14:24:01.049Z,100.00
2023-04-15T14:26:29.765Z,100.00
2023-04-15T14:28:59.662Z,100.00
2023-04-15T14:31:27.720Z,100.00
2023-04-15T14:33:56.263Z,100.00
2023-04-15T14:36:24.494Z,100.00
2023-04-15T14:38:52.668Z,100.00
2023-04-15T14:41:20.853Z,100.00
2023-04-15T14:43:51.926Z,100.00
2023-04-15T14:46:21.809Z,100.00
2023-04-15T14:48:50.114Z,100.00
2023-04-15T14:51:19.076Z,100.00
2023-04-15T14:53:47.182Z,100.00
2023-04-15T14:56:15.470Z,100.00
2023-04-15T14:58:43.880Z,100.00
2023-04-15T15:01:12.509Z,100.00
2023-04-15T15:03:42.560Z,100.00
2023-04-15T15:06:11.941Z,100.00
2023-04-15T15:08:40.329Z,100.00
2023-04-15T15:11:08.682Z,100.00
2023-04-15T15:13:36.716Z,100.00
2023-04-15T15:16:05.034Z,100.00
2023-04-15T15:18:33.685Z,100.00
2023-04-15T15:21:03.382Z,100.00
2023-04-15T15:23:32.350Z,100.00
2023-04-15T15:26:00.895Z,100.00
2023-04-15T15:28:29.721Z,100.00
2023-04-15T15:30:58.249Z,100.00
2023-04-15T15:33:30.034Z,100.00
2023-04-15T15:35:59.127Z,100.00
2023-04-15T15:38:29.509Z,100.00
2023-04-15T15:40:57.746Z,100.00
2023-04-15T15:43:26.153Z,100.00
2023-04-15T15:45:55.818Z,100.00
2023-04-15T15:48:24.433Z,100.00
2023-04-15T15:50:53.258Z,100.00
2023-04-15T15:53:24.590Z,100.00
2023-04-15T15:55:54.186Z,100.00
2023-04-15T15:58:22.385Z,100.00
2023-04-15T16:00:50.522Z,100.00
2023-04-15T16:03:18.741Z,100.00
2023-04-15T16:05:48.038Z,100.00
2023-04-15T16:08:16.211Z,100.00
2023-04-15T16:10:45.777Z,100.00
2023-04-15T16:13:15.338Z,100.00
2023-04-15T16:15:44.555Z,100.00
2023-04-15T16:18:12.638Z,100.00
2023-04-15T16:20:41.794Z,100.00
2023-04-15T16:23:15.504Z,100.00
2023-04-15T16:25:44.585Z,100.00
2023-04-15T16:28:25.807Z,100.00
2023-04-15T16:30:56.385Z,100.00
2023-04-15T16:33:24.658Z,100.00
2023-04-15T16:35:53.064Z,100.00
2023-04-15T16:38:21.625Z,100.00
2023-04-15T16:40:49.828Z,100.00
2023-04-15T16:43:17.839Z,100.00
2023-04-15T16:45:51.030Z,100.00
2023-04-15T16:48:22.726Z,100.00
2023-04-15T16:50:50.810Z,100.00
2023-04-15T16:53:19.034Z,100.00
2023-04-15T16:55:47.198Z,100.00
2023-04-15T16:58:15.363Z,100.00
2023-04-15T17:00:43.582Z,100.00
2023-04-15T17:03:12.202Z,100.00
2023-04-15T17:05:42.768Z,100.00
2023-04-15T17:08:11.274Z,100.00
2023-04-15T17:10:39.860Z,100.00
2023-04-15T17:13:08.071Z,100.00
2023-04-15T17:15:36.444Z,100.00
2023-04-15T17:18:06.034Z,100.00
2023-04-15T17:20:34.656Z,100.00
2023-04-15T17:23:04.969Z,100.00
2023-04-15T17:25:33.292Z,100.00
2023-04-15T17:28:02.052Z,100.00
2023-04-15T17:30:31.025Z,100.00
2023-04-15T17:32:59.514Z,100.00
2023-04-15T17:35:28.394Z,100.00
2023-04-15T17:43:42.563Z,100.00
2023-04-15T17:46:12.521Z,100.00
2023-04-15T17:48:41.257Z,100.00
2023-04-15T17:51:09.234Z,100.00
2023-04-15T17:53:38.221Z,100.00
2023-04-15T17:56:07.062Z,100.00
2023-04-15T17:58:35.546Z,100.00
2023-04-15T18:01:05.479Z,100.00
2023-04-15T18:03:34.379Z,100.00
2023-04-15T18:06:03.251Z,100.00
2023-04-15T18:08:32.482Z,100.00
2023-04-15T18:11:00.820Z,100.00
2023-04-15T18:13:29.033Z,100.00
2023-04-15T18:15:58.802Z,100.00
2023-04-15T18:24:13.726Z,100.00
2023-04-15T18:26:42.222Z,100.00
2023-04-15T18:29:12.512Z,100.00
2023-04-15T18:31:41.661Z,100.00
2023-04-15T18:34:10.154Z,100.00
2023-04-15T18:36:38.580Z,100.00
2023-04-15T18:39:06.829Z,100.00
2023-04-15T18:41:36.832Z,100.00
2023-04-15T18:44:05.760Z,100.00
2023-04-15T18:46:33.885Z,100.00
2023-04-15T18:49:02.409Z,100.00
2023-04-15T18:51:31.059Z,100.00
2023-04-15T18:53:59.446Z,100.00
2023-04-15T18:56:27.710Z,100.00
2023-04-15T18:59:27.516Z,100.00
2023-04-15T19:01:46.423Z,100.00
2023-04-15T19:04:15.053Z,100.00
2023-04-15T19:06:43.316Z,100.00
2023-04-15T19:09:11.626Z,100.00
2023-04-15T19:14:37.227Z,100.00
2023-04-15T19:17:05.521Z,100.00
2023-04-15T19:19:33.798Z,100.00
2023-04-15T19:22:03.861Z,100.00
2023-04-15T19:24:33.080Z,100.00
2023-04-15T19:27:04.189Z,100.00
2023-04-15T19:29:32.640Z,100.00
2023-04-15T19:32:01.873Z,100.00
2023-04-15T19:34:29.714Z,100.00
2023-04-15T19:36:57.953Z,100.00
2023-04-15T19:39:26.067Z,100.00
2023-04-15T19:41:55.519Z,100.00
2023-04-15T19:44:23.485Z,100.00
2023-04-15T19:46:53.320Z,100.00
2023-04-15T19:49:22.781Z,100.00
2023-04-15T19:51:51.392Z,100.00
2023-04-15T19:54:19.061Z,100.00
2023-04-15T19:56:47.012Z,100.00
2023-04-15T19:59:14.908Z,100.00
2023-04-15T20:01:42.971Z,100.00
2023-04-15T20:04:11.346Z,100.00
2023-04-15T20:06:40.912Z,100.00
2023-04-15T20:09:11.083Z,100.00
2023-04-15T20:12:09.715Z,100.00
2023-04-15T20:14:46.794Z,100.00
2023-04-15T20:17:15.838Z,100.00
2023-04-15T20:19:43.974Z,100.00
2023-04-15T20:22:13.178Z,100.00
2023-04-15T20:24:41.111Z,100.00
2023-04-15T20:27:08.945Z,100.00
2023-04-15T20:29:38.062Z,100.00
2023-04-15T20:32:06.728Z,100.00
2023-04-15T20:34:35.321Z,100.00
2023-04-15T20:37:03.206Z,100.00
2023-04-15T20:39:33.128Z,100.00
2023-04-15T20:42:01.575Z,100.00
2023-04-15T20:44:29.601Z,100.00
2023-04-15T20:46:57.637Z,100.00
2023-04-15T20:49:25.476Z,100.00
2023-04-15T20:51:53.600Z,100.00
2023-04-15T20:54:21.609Z,100.00
2023-04-15T20:56:51.264Z,100.00
2023-04-15T20:59:19.322Z,100.00
2023-04-15T21:01:47.968Z,100.00
2023-04-15T21:04:15.686Z,100.00
2023-04-15T21:06:43.836Z,100.00
2023-04-15T21:09:11.971Z,100.00
2023-04-15T21:11:57.212Z,100.00
2023-04-15T21:14:29.863Z,100.00
2023-04-15T21:16:58.612Z,100.00
2023-04-15T21:19:27.666Z,100.00
2023-04-15T21:21:55.928Z,100.00
2023-04-15T21:24:24.473Z,100.00
2023-04-15T21:26:52.777Z,100.00
2023-04-15T21:29:21.459Z,100.00
2023-04-15T21:31:51.634Z,100.00
2023-04-15T21:34:19.727Z,100.00
2023-04-15T21:36:48.024Z,100.00
2023-04-15T21:39:17.432Z,100.00
2023-04-15T21:41:45.850Z,100.00
2023-04-15T21:44:14.968Z,100.00
2023-04-15T21:46:46.014Z,100.00
2023-04-15T21:49:18.312Z,100.00
2023-04-15T21:51:48.640Z,100.00
2023-04-15T21:54:22.546Z,100.00
2023-04-15T21:56:51.672Z,100.00
2023-04-15T21:59:20.584Z,100.00
2023-04-15T22:01:50.346Z,100.00
2023-04-15T22:04:24.721Z,100.00
2023-04-15T22:06:56.159Z,100.00
2023-04-15T22:09:25.426Z,100.00
2023-04-15T22:11:54.751Z,100.00
2023-04-15T22:14:23.687Z,100.00
2023-04-15T22:16:52.298Z,100.00
2023-04-15T22:19:20.900Z,100.00
2023-04-15T22:21:51.199Z,100.00
2023-04-15T22:24:37.280Z,100.00
2023-04-15T22:27:08.997Z,100.00
2023-04-15T22:29:37.159Z,100.00
2023-04-15T22:32:06.170Z,100.00
2023-04-15T22:34:35.693Z,100.00
2023-04-15T22:37:05.795Z,100.00
2023-04-15T22:39:34.863Z,100.00
2023-04-15T22:42:03.735Z,100.00
2023-04-15T22:44:32.218Z,100.00
2023-04-15T22:47:00.692Z,100.00
2023-04-15T22:49:29.057Z,100.00
2023-04-15T22:51:57.361Z,100.00
2023-04-15T22:54:27.181Z,100.00
2023-04-15T22:56:56.572Z,100.00
2023-04-15T22:59:25.514Z,100.00
2023-04-15T23:01:54.349Z,100.00
2023-04-15T23:04:28.365Z,100.00
2023-04-15T23:06:58.106Z,100.00
2023-04-15T23:09:29.188Z,100.00
2023-04-15T23:11:58.612Z,100.00
2023-04-15T23:14:28.867Z,100.00
2023-04-15T23:16:59.787Z,100.00
2023-04-15T23:19:30.410Z,100.00
2023-04-15T23:21:59.317Z,100.00
2023-04-15T23:24:31.626Z,100.00
2023-04-15T23:27:01.439Z,100.00
2023-04-15T23:29:30.144Z,100.00
2023-04-15T23:32:00.086Z,100.00
2023-04-15T23:34:29.034Z,100.00
2023-04-15T23:36:57.685Z,100.00
2023-04-15T23:39:27.044Z,100.00
2023-04-15T23:41:58.207Z,100.00
2023-04-15T23:44:26.893Z,100.00
2023-04-15T23:46:56.029Z,100.00
2023-04-15T23:49:24.856Z,100.00
2023-04-15T23:51:54.149Z,100.00
2023-04-15T23:54:23.025Z,100.00
2023-04-15T23:56:53.068Z,100.00
2023-04-15T23:59:23.638Z,100.00
